LFPN 220230Z AUTO 23015KT 9999 FEW022 SCT080 OVC120 09/06 Q1016

ElémentsDécodage
LFPN Station météo située sur l'aérodrome de TOUSSUS-LE-NOBLE
220230Z émis le 22 du mois à 02h30 UTC
AUTO Bulletin édité par un automate
23015KT vent du 230°, 15 noeuds
9999 visibilité horizontale supérieure à 10 Km
FEW022 nuages rares (1/8 à 2/8) à 2200 pieds
SCT080 nuages épars (3/8 à 4/8) à 8000 pieds
OVC120 couverture nuageuse totale (8/8) à 12000 pieds
09/06 température 09°C, point de rosée 06°C
 soit une humidité relative de 81%
Q1016 la pression au niveau de la mer (QNH) est de 1016 hPa